createdAt,value
2023-10-27T00:00:49.758Z,63.14
2023-10-27T00:01:49.680Z,62.44
2023-10-27T00:02:49.719Z,62.24
2023-10-27T00:03:49.721Z,62.67
2023-10-27T00:04:49.710Z,62.97
2023-10-27T00:05:49.643Z,63.40
2023-10-27T00:06:49.649Z,63.50
2023-10-27T00:07:49.641Z,63.50
2023-10-27T00:08:49.627Z,64.24
2023-10-27T00:09:49.618Z,64.24
2023-10-27T00:10:49.563Z,64.24
2023-10-27T00:11:49.588Z,64.24
2023-10-27T00:12:49.537Z,64.01
2023-10-27T00:13:49.512Z,63.60
2023-10-27T00:14:49.508Z,63.40
2023-10-27T00:15:49.477Z,63.64
2023-10-27T00:16:49.457Z,63.84
2023-10-27T00:17:49.568Z,64.14
2023-10-27T00:18:49.591Z,64.14
2023-10-27T00:19:49.423Z,64.27
2023-10-27T00:20:49.459Z,65.00
2023-10-27T00:21:49.436Z,65.41
2023-10-27T00:22:49.384Z,65.10
2023-10-27T00:23:49.418Z,64.57
2023-10-27T00:24:49.410Z,64.57
2023-10-27T00:25:49.363Z,64.34
2023-10-27T00:26:49.343Z,63.93
2023-10-27T00:27:49.387Z,63.90
2023-10-27T00:28:49.294Z,64.01
2023-10-27T00:29:49.304Z,63.50
2023-10-27T00:30:49.324Z,63.37
2023-10-27T00:31:49.261Z,63.17
2023-10-27T00:32:49.342Z,63.28
2023-10-27T00:33:49.272Z,63.17
2023-10-27T00:34:49.326Z,63.17
2023-10-27T00:35:49.255Z,63.28
2023-10-27T00:36:49.240Z,63.28
2023-10-27T00:37:49.193Z,62.97
2023-10-27T00:38:49.187Z,63.50
2023-10-27T00:39:49.166Z,63.70
2023-10-27T00:40:49.300Z,63.40
2023-10-27T00:41:49.150Z,63.70
2023-10-27T00:42:49.182Z,63.81
2023-10-27T00:43:49.105Z,64.01
2023-10-27T00:44:49.084Z,63.81
2023-10-27T00:45:49.240Z,63.47
2023-10-27T00:46:49.057Z,63.17
2023-10-27T00:47:49.086Z,63.07
2023-10-27T00:48:49.063Z,64.01
2023-10-27T00:49:49.085Z,64.34
2023-10-27T00:50:49.056Z,64.34
2023-10-27T00:51:49.005Z,64.54
2023-10-27T00:52:48.973Z,64.67
2023-10-27T00:53:48.962Z,65.37
2023-10-27T00:54:48.958Z,65.04
2023-10-27T00:55:48.929Z,64.64
2023-10-27T00:56:48.940Z,64.31
2023-10-27T00:57:48.961Z,63.90
2023-10-27T00:58:48.894Z,64.01
2023-10-27T00:59:48.910Z,63.70
2023-10-27T01:00:48.885Z,63.60
2023-10-27T01:01:48.860Z,63.60
2023-10-27T01:02:48.961Z,63.47
2023-10-27T01:03:48.822Z,63.28
2023-10-27T01:04:48.901Z,63.17
2023-10-27T01:05:48.782Z,63.07
2023-10-27T01:06:48.815Z,63.07
2023-10-27T01:07:48.773Z,63.47
2023-10-27T01:08:48.762Z,63.17
2023-10-27T01:09:48.751Z,63.28
2023-10-27T01:10:48.716Z,63.37
2023-10-27T01:11:48.693Z,63.50
2023-10-27T01:12:48.700Z,63.47
2023-10-27T01:13:48.704Z,63.17
2023-10-27T01:14:48.682Z,62.97
2023-10-27T01:15:48.629Z,63.64
2023-10-27T01:16:48.619Z,65.27
2023-10-27T01:17:48.675Z,65.17
2023-10-27T01:18:48.767Z,64.54
2023-10-27T01:19:48.947Z,64.34
2023-10-27T01:20:48.657Z,64.34
2023-10-27T01:21:48.540Z,64.43
2023-10-27T01:22:48.551Z,64.64
2023-10-27T01:23:48.544Z,64.74
2023-10-27T01:24:48.526Z,64.97
2023-10-27T01:25:48.505Z,65.37
2023-10-27T01:26:48.484Z,64.84
2023-10-27T01:27:48.456Z,64.97
2023-10-27T01:28:48.438Z,65.17
2023-10-27T01:29:48.434Z,65.47
2023-10-27T01:30:48.461Z,65.27
2023-10-27T01:31:48.397Z,65.27
2023-10-27T01:32:48.418Z,65.60
2023-10-27T01:33:48.400Z,65.60
2023-10-27T01:34:48.452Z,65.91
2023-10-27T01:35:48.357Z,65.80
2023-10-27T01:36:48.352Z,65.70
2023-10-27T01:37:48.314Z,66.11
2023-10-27T01:38:48.335Z,66.20
2023-10-27T01:39:48.290Z,66.20
2023-10-27T01:40:48.279Z,66.31
2023-10-27T01:41:48.277Z,66.00
2023-10-27T01:42:48.287Z,66.14
2023-10-27T01:43:48.227Z,66.24
2023-10-27T01:44:48.237Z,66.54
2023-10-27T01:45:48.207Z,67.47
2023-10-27T01:46:48.195Z,67.07
2023-10-27T01:47:48.217Z,67.18
2023-10-27T01:48:48.255Z,67.58
2023-10-27T01:49:48.191Z,67.27
2023-10-27T01:50:48.144Z,68.11
2023-10-27T01:51:48.121Z,68.04
2023-10-27T01:52:48.149Z,68.41
2023-10-27T01:53:48.085Z,67.91
2023-10-27T01:54:48.110Z,67.81
2023-10-27T01:55:48.083Z,68.31
2023-10-27T01:56:48.060Z,68.31
2023-10-27T01:57:48.052Z,68.01
2023-10-27T01:58:48.057Z,68.11
2023-10-27T01:59:48.022Z,68.65
2023-10-27T02:00:48.022Z,68.31
2023-10-27T02:01:47.977Z,68.44
2023-10-27T02:02:48.031Z,67.71
2023-10-27T02:03:47.990Z,68.55
2023-10-27T02:04:48.044Z,69.05
2023-10-27T02:05:47.917Z,68.75
2023-10-27T02:06:47.945Z,68.28
2023-10-27T02:07:47.899Z,67.47
2023-10-27T02:08:47.871Z,67.38
2023-10-27T02:09:47.876Z,67.91
2023-10-27T02:10:47.861Z,67.94
2023-10-27T02:11:47.844Z,68.85
2023-10-27T02:12:47.849Z,68.85
2023-10-27T02:13:47.809Z,69.05
2023-10-27T02:14:47.796Z,68.71
2023-10-27T02:15:47.784Z,68.11
2023-10-27T02:16:47.786Z,67.88
2023-10-27T02:17:47.793Z,66.94
2023-10-27T02:18:47.810Z,66.74
2023-10-27T02:19:47.927Z,66.64
2023-10-27T02:20:47.705Z,66.34
2023-10-27T02:21:47.704Z,66.64
2023-10-27T02:22:47.695Z,66.14
2023-10-27T02:23:47.671Z,66.74
2023-10-27T02:24:47.689Z,66.44
2023-10-27T02:25:47.635Z,66.84
2023-10-27T02:26:47.622Z,66.57
2023-10-27T02:27:47.619Z,67.71
2023-10-27T02:28:47.595Z,67.71
2023-10-27T02:29:47.666Z,67.91
2023-10-27T02:30:48.083Z,67.38
2023-10-27T02:31:47.985Z,66.74
2023-10-27T02:32:47.789Z,66.84
2023-10-27T02:33:47.855Z,66.64
2023-10-27T02:34:47.973Z,66.20
2023-10-27T02:35:47.851Z,66.14
2023-10-27T02:36:48.342Z,66.24
2023-10-27T02:37:47.802Z,66.24
2023-10-27T02:38:47.806Z,66.24
2023-10-27T02:39:47.656Z,65.94
2023-10-27T02:40:47.654Z,66.14
2023-10-27T02:41:47.642Z,66.03
2023-10-27T02:42:47.749Z,66.47
2023-10-27T02:43:47.689Z,67.18
2023-10-27T02:44:47.720Z,66.84
2023-10-27T02:45:47.598Z,66.44
2023-10-27T02:46:47.542Z,66.34
2023-10-27T02:47:47.617Z,66.64
2023-10-27T02:48:47.741Z,65.80
2023-10-27T02:49:47.539Z,65.50
2023-10-27T02:50:47.673Z,65.41
2023-10-27T02:51:47.561Z,65.91
2023-10-27T02:52:47.449Z,65.60
2023-10-27T02:53:47.393Z,65.20
2023-10-27T02:54:47.552Z,65.94
2023-10-27T02:55:47.523Z,66.11
2023-10-27T02:56:47.452Z,65.84
2023-10-27T02:57:47.388Z,66.14
2023-10-27T02:58:47.473Z,65.94
2023-10-27T02:59:47.327Z,66.17
2023-10-27T03:00:47.431Z,66.17
2023-10-27T03:01:47.495Z,66.47
2023-10-27T03:02:47.486Z,67.11
2023-10-27T03:03:47.304Z,67.00
2023-10-27T03:04:47.460Z,66.97
2023-10-27T03:05:47.308Z,66.80
2023-10-27T03:06:47.544Z,66.60
2023-10-27T03:07:47.286Z,66.67
2023-10-27T03:08:47.345Z,66.14
2023-10-27T03:09:47.303Z,65.73
2023-10-27T03:10:47.273Z,65.20
2023-10-27T03:11:47.372Z,65.00
2023-10-27T03:12:47.390Z,64.50
2023-10-27T03:13:47.232Z,65.13
2023-10-27T03:14:47.221Z,65.10
2023-10-27T03:15:47.162Z,65.30
2023-10-27T03:16:47.321Z,64.70
2023-10-27T03:17:47.214Z,65.03
2023-10-27T03:18:47.388Z,65.23
2023-10-27T03:19:47.629Z,65.87
2023-10-27T03:20:47.025Z,65.73
2023-10-27T03:21:47.249Z,65.20
2023-10-27T03:22:47.073Z,64.47
2023-10-27T03:23:47.022Z,64.50
2023-10-27T03:24:47.011Z,64.50
2023-10-27T03:25:47.159Z,65.00
2023-10-27T03:26:47.074Z,64.57
2023-10-27T03:27:47.123Z,63.96
2023-10-27T03:28:47.060Z,64.04
2023-10-27T03:29:47.214Z,63.64
2023-10-27T03:30:46.961Z,63.50
2023-10-27T03:31:47.117Z,63.33
2023-10-27T03:32:47.004Z,63.33
2023-10-27T03:33:47.049Z,63.93
2023-10-27T03:34:46.953Z,63.53
2023-10-27T03:35:46.957Z,63.43
2023-10-27T03:36:47.097Z,64.20
2023-10-27T03:37:47.044Z,64.40
2023-10-27T03:38:46.977Z,64.20
2023-10-27T03:39:46.913Z,64.73
2023-10-27T03:40:46.842Z,64.93
2023-10-27T03:41:46.832Z,64.80
2023-10-27T03:42:46.841Z,64.30
2023-10-27T03:43:46.873Z,63.96
2023-10-27T03:44:46.892Z,63.70
2023-10-27T03:45:46.767Z,64.83
2023-10-27T03:46:46.776Z,65.33
2023-10-27T03:47:46.850Z,65.44
2023-10-27T03:48:46.743Z,65.23
2023-10-27T03:49:46.822Z,65.03
2023-10-27T03:50:46.781Z,65.44
2023-10-27T03:51:46.677Z,65.30
2023-10-27T03:52:46.729Z,64.93
2023-10-27T03:53:46.671Z,64.60
2023-10-27T03:54:46.728Z,64.60
2023-10-27T03:55:46.692Z,64.07
2023-10-27T03:56:46.879Z,64.07
2023-10-27T03:57:46.684Z,63.90
2023-10-27T03:58:48.550Z,64.03
2023-10-27T03:59:46.855Z,65.13
2023-10-27T04:00:46.677Z,65.00
2023-10-27T04:01:46.802Z,63.90
2023-10-27T04:02:46.712Z,64.13
2023-10-27T04:03:46.600Z,64.83
2023-10-27T04:04:46.628Z,64.43
2023-10-27T04:05:46.595Z,64.73
2023-10-27T04:06:46.598Z,64.73
2023-10-27T04:07:46.714Z,64.10
2023-10-27T04:08:46.528Z,64.86
2023-10-27T04:09:46.603Z,65.26
2023-10-27T04:10:46.528Z,65.23
2023-10-27T04:11:47.221Z,65.26
2023-10-27T04:12:46.428Z,65.13
2023-10-27T04:13:46.516Z,64.96
2023-10-27T04:14:46.530Z,64.89
2023-10-27T04:15:46.431Z,66.33
2023-10-27T04:16:46.405Z,66.87
2023-10-27T04:17:46.393Z,66.97
2023-10-27T04:18:46.319Z,66.83
2023-10-27T04:19:46.631Z,66.50
2023-10-27T04:20:46.304Z,65.90
2023-10-27T04:21:46.435Z,66.00
2023-10-27T04:22:46.400Z,66.00
2023-10-27T04:23:46.372Z,65.77
2023-10-27T04:24:46.314Z,65.56
2023-10-27T04:25:46.293Z,65.13
2023-10-27T04:26:46.278Z,64.73
2023-10-27T04:27:46.338Z,64.80
2023-10-27T04:28:46.358Z,64.50
2023-10-27T04:29:46.428Z,64.30
2023-10-27T04:30:46.261Z,64.07
2023-10-27T04:31:46.253Z,63.29
2023-10-27T04:32:46.308Z,64.20
2023-10-27T04:33:46.309Z,64.30
2023-10-27T04:34:46.117Z,64.40
2023-10-27T04:35:46.737Z,64.20
2023-10-27T04:36:46.202Z,64.07
2023-10-27T04:37:46.141Z,64.00
2023-10-27T04:38:46.128Z,63.79
2023-10-27T04:39:46.443Z,63.70
2023-10-27T04:40:46.148Z,63.79
2023-10-27T04:41:46.257Z,64.00
2023-10-27T04:42:45.996Z,63.96
2023-10-27T04:43:46.113Z,63.67
2023-10-27T04:44:46.104Z,63.67
2023-10-27T04:45:46.191Z,63.76
2023-10-27T04:46:46.020Z,63.79
2023-10-27T04:47:46.211Z,63.70
2023-10-27T04:48:46.183Z,63.79
2023-10-27T04:49:46.130Z,63.90
2023-10-27T04:50:45.955Z,63.29
2023-10-27T04:51:46.119Z,64.10
2023-10-27T04:52:45.865Z,64.13
2023-10-27T04:53:45.966Z,64.23
2023-10-27T04:54:45.873Z,64.46
2023-10-27T04:55:45.940Z,65.09
2023-10-27T04:56:45.826Z,66.27
2023-10-27T04:57:45.804Z,67.23
2023-10-27T04:58:45.801Z,68.17
2023-10-27T04:59:46.080Z,67.74
2023-10-27T05:00:45.731Z,68.14
2023-10-27T05:01:45.818Z,67.63
2023-10-27T05:02:45.814Z,67.94
2023-10-27T05:03:46.044Z,67.74
2023-10-27T05:04:45.739Z,68.14
2023-10-27T05:05:45.818Z,66.97
2023-10-27T05:06:45.955Z,66.67
2023-10-27T05:07:45.732Z,66.74
2023-10-27T05:08:45.736Z,66.13
2023-10-27T05:09:45.792Z,66.70
2023-10-27T05:10:45.803Z,67.23
2023-10-27T05:11:45.880Z,67.77
2023-10-27T05:12:45.645Z,67.84
2023-10-27T05:13:45.791Z,67.63
2023-10-27T05:14:45.666Z,68.24
2023-10-27T05:15:45.719Z,67.10
2023-10-27T05:16:45.599Z,67.63
2023-10-27T05:17:45.840Z,67.94
2023-10-27T05:18:45.619Z,68.57
2023-10-27T05:19:45.822Z,68.81
2023-10-27T05:20:45.582Z,69.89
2023-10-27T05:21:45.559Z,71.03
2023-10-27T05:22:45.439Z,71.84
2023-10-27T05:23:45.555Z,70.86
2023-10-27T05:24:45.449Z,69.95
2023-10-27T05:25:45.523Z,69.42
2023-10-27T05:26:45.496Z,69.01
2023-10-27T05:27:45.445Z,69.21
2023-10-27T05:28:45.628Z,69.52
2023-10-27T05:29:45.784Z,69.31
2023-10-27T05:30:45.408Z,68.98
2023-10-27T05:31:45.319Z,68.91
2023-10-27T05:32:45.386Z,68.81
2023-10-27T05:33:45.521Z,68.88
2023-10-27T05:34:45.641Z,68.61
2023-10-27T05:35:45.397Z,69.01
2023-10-27T05:36:45.288Z,68.61
2023-10-27T05:37:45.343Z,68.37
2023-10-27T05:38:45.360Z,67.97
2023-10-27T05:39:45.619Z,68.27
2023-10-27T05:40:45.480Z,68.34
2023-10-27T05:41:45.280Z,67.30
2023-10-27T05:42:45.240Z,66.50
2023-10-27T05:43:45.198Z,67.10
2023-10-27T05:44:45.258Z,67.10
2023-10-27T05:45:45.171Z,66.93
2023-10-27T05:46:45.193Z,68.17
2023-10-27T05:47:45.492Z,67.63
2023-10-27T05:48:45.282Z,66.83
2023-10-27T05:49:45.592Z,67.57
2023-10-27T05:50:45.293Z,68.61
2023-10-27T05:51:45.291Z,68.68
2023-10-27T05:52:45.275Z,68.37
2023-10-27T05:53:45.131Z,68.07
2023-10-27T05:54:47.231Z,68.27
2023-10-27T05:55:45.208Z,68.48
2023-10-27T05:56:45.246Z,69.15
2023-10-27T05:57:45.132Z,69.65
2023-10-27T05:58:45.118Z,70.29
2023-10-27T05:59:45.313Z,70.89
2023-10-27T06:00:45.302Z,70.69
2023-10-27T06:01:45.260Z,70.15
2023-10-27T06:02:45.192Z,70.15
2023-10-27T06:03:45.096Z,69.72
2023-10-27T06:04:45.084Z,68.74
2023-10-27T06:05:45.199Z,67.91
2023-10-27T06:06:45.122Z,67.57
2023-10-27T06:07:44.974Z,67.03
2023-10-27T06:08:44.960Z,66.60
2023-10-27T06:09:45.279Z,68.17
2023-10-27T06:10:44.995Z,68.98
2023-10-27T06:11:45.005Z,69.05
2023-10-27T06:12:44.782Z,68.74
2023-10-27T06:13:44.942Z,69.31
2023-10-27T06:14:44.858Z,70.46
2023-10-27T06:15:45.712Z,70.76
2023-10-27T06:16:44.876Z,70.66
2023-10-27T06:17:44.800Z,70.73
2023-10-27T06:18:44.777Z,70.96
2023-10-27T06:19:45.127Z,70.86
2023-10-27T06:20:44.770Z,71.47
2023-10-27T06:21:44.890Z,71.60
2023-10-27T06:22:44.930Z,71.47
2023-10-27T06:23:44.877Z,71.20
2023-10-27T06:24:44.802Z,72.21
2023-10-27T06:25:44.725Z,72.11
2023-10-27T06:26:44.646Z,72.21
2023-10-27T06:27:44.747Z,71.67
2023-10-27T06:28:44.632Z,71.67
2023-10-27T06:29:44.819Z,71.06
2023-10-27T06:30:44.682Z,71.57
2023-10-27T06:31:44.675Z,71.03
2023-10-27T06:32:44.713Z,70.96
2023-10-27T06:33:44.717Z,71.17
2023-10-27T06:34:44.763Z,71.17
2023-10-27T06:35:44.740Z,72.21
2023-10-27T06:36:44.605Z,71.87
2023-10-27T06:37:44.557Z,72.11
2023-10-27T06:38:44.738Z,72.34
2023-10-27T06:39:44.745Z,72.64
2023-10-27T06:40:44.673Z,72.61
2023-10-27T06:41:44.718Z,72.07
2023-10-27T06:42:44.565Z,71.77
2023-10-27T06:43:45.415Z,72.31
2023-10-27T06:44:44.599Z,72.41
2023-10-27T06:45:44.566Z,73.15
2023-10-27T06:46:44.656Z,72.99
2023-10-27T06:47:44.664Z,73.59
2023-10-27T06:48:44.637Z,73.02
2023-10-27T06:49:44.765Z,72.51
2023-10-27T06:50:44.683Z,71.97
2023-10-27T06:51:44.566Z,71.53
2023-10-27T06:52:44.508Z,70.62
2023-10-27T06:53:44.519Z,71.06
2023-10-27T06:54:44.733Z,71.97
2023-10-27T06:55:44.379Z,71.67
2023-10-27T06:56:44.461Z,72.55
2023-10-27T06:57:44.451Z,71.91
2023-10-27T06:58:44.369Z,72.58
2023-10-27T06:59:44.338Z,70.93
2023-10-27T07:00:44.372Z,71.57
2023-10-27T07:01:46.728Z,71.13
2023-10-27T07:02:56.175Z,69.92
2023-10-27T07:03:45.413Z,71.06
2023-10-27T07:04:44.625Z,70.62
2023-10-27T07:05:44.378Z,70.73
2023-10-27T07:06:44.410Z,70.19
2023-10-27T07:07:44.281Z,69.25
2023-10-27T07:08:44.285Z,69.59
2023-10-27T07:09:44.296Z,68.74
2023-10-27T07:10:44.270Z,69.45
2023-10-27T07:11:44.225Z,69.35
2023-10-27T07:12:44.221Z,68.74
2023-10-27T07:13:44.211Z,68.54
2023-10-27T07:14:44.487Z,69.08
2023-10-27T07:15:44.134Z,69.25
2023-10-27T07:16:44.132Z,68.95
2023-10-27T07:17:44.174Z,69.15
2023-10-27T07:18:44.170Z,68.31
2023-10-27T07:19:45.124Z,67.40
2023-10-27T07:20:44.250Z,68.74
2023-10-27T07:21:44.170Z,69.05
2023-10-27T07:22:44.301Z,68.74
2023-10-27T07:23:44.037Z,68.44
2023-10-27T07:24:44.259Z,69.21
2023-10-27T07:25:44.123Z,71.06
2023-10-27T07:26:44.003Z,70.53
2023-10-27T07:27:44.069Z,70.53
2023-10-27T07:28:44.026Z,69.62
2023-10-27T07:29:44.181Z,70.09
2023-10-27T07:30:43.998Z,68.91
2023-10-27T07:31:44.051Z,68.14
2023-10-27T07:32:43.902Z,69.42
2023-10-27T07:33:44.081Z,69.52
2023-10-27T07:34:44.197Z,69.62
2023-10-27T07:35:43.812Z,70.15
2023-10-27T07:36:43.939Z,69.92
2023-10-27T07:37:43.863Z,69.38
2023-10-27T07:38:43.999Z,68.68
2023-10-27T07:39:43.781Z,69.11
2023-10-27T07:40:44.010Z,68.81
2023-10-27T07:41:43.893Z,68.98
2023-10-27T07:42:43.865Z,68.37
2023-10-27T07:43:43.801Z,68.44
2023-10-27T07:44:44.058Z,67.63
2023-10-27T07:45:43.806Z,68.37
2023-10-27T07:46:43.878Z,68.51
2023-10-27T07:47:43.736Z,68.04
2023-10-27T07:48:43.881Z,66.90
2023-10-27T07:49:43.735Z,66.80
2023-10-27T07:50:43.647Z,67.63
2023-10-27T07:51:43.666Z,67.20
2023-10-27T07:52:43.788Z,66.77
2023-10-27T07:53:44.574Z,66.09
2023-10-27T07:54:43.969Z,66.16
2023-10-27T07:55:43.661Z,66.36
2023-10-27T07:56:43.652Z,66.06
2023-10-27T07:57:43.688Z,65.53
2023-10-27T07:58:43.693Z,66.03
2023-10-27T07:59:43.688Z,66.16
2023-10-27T08:00:43.534Z,66.70
2023-10-27T08:01:43.753Z,66.60
2023-10-27T08:02:43.754Z,66.93
2023-10-27T08:03:43.710Z,66.33
2023-10-27T08:04:43.572Z,66.70
2023-10-27T08:05:43.683Z,65.69
2023-10-27T08:06:43.595Z,65.72
2023-10-27T08:07:43.627Z,65.76
2023-10-27T08:08:43.547Z,65.19
2023-10-27T08:09:43.763Z,65.86
2023-10-27T08:10:43.500Z,65.12
2023-10-27T08:11:43.535Z,64.52
2023-10-27T08:12:43.550Z,63.79
2023-10-27T08:13:43.567Z,63.32
2023-10-27T08:14:43.659Z,63.28
2023-10-27T08:15:43.482Z,63.48
2023-10-27T08:16:43.442Z,63.35
2023-10-27T08:17:43.415Z,62.85
2023-10-27T08:18:43.523Z,63.92
2023-10-27T08:19:43.305Z,64.35
2023-10-27T08:20:43.257Z,64.45
2023-10-27T08:21:43.430Z,64.07
2023-10-27T08:22:43.569Z,64.55
2023-10-27T08:23:43.304Z,63.68
2023-10-27T08:24:43.522Z,61.91
2023-10-27T08:25:43.216Z,61.71
2023-10-27T08:26:43.158Z,62.35
2023-10-27T08:27:43.254Z,62.35
2023-10-27T08:28:43.275Z,61.41
2023-10-27T08:29:43.212Z,61.51
2023-10-27T08:30:43.279Z,61.08
2023-10-27T08:31:43.132Z,60.94
2023-10-27T08:32:43.196Z,62.27
2023-10-27T08:33:43.165Z,62.61
2023-10-27T08:34:43.158Z,62.61
2023-10-27T08:35:43.109Z,62.51
2023-10-27T08:36:43.010Z,62.71
2023-10-27T08:37:43.159Z,62.48
2023-10-27T08:38:43.000Z,62.18
2023-10-27T08:39:42.972Z,62.01
2023-10-27T08:40:43.111Z,62.48
2023-10-27T08:41:43.124Z,61.87
2023-10-27T08:42:43.036Z,61.94
2023-10-27T08:43:43.174Z,61.65
2023-10-27T08:44:43.440Z,60.91
2023-10-27T08:45:43.039Z,60.74
2023-10-27T08:46:43.114Z,61.67
2023-10-27T08:47:43.058Z,61.74
2023-10-27T08:48:42.958Z,60.81
2023-10-27T08:49:43.037Z,60.21
2023-10-27T08:50:42.948Z,60.77
2023-10-27T08:51:42.782Z,61.07
2023-10-27T08:52:43.073Z,61.40
2023-10-27T08:53:43.017Z,62.54
2023-10-27T08:54:42.779Z,62.74
2023-10-27T08:55:42.916Z,62.81
2023-10-27T08:56:42.695Z,62.07
2023-10-27T08:57:43.222Z,62.61
2023-10-27T08:58:42.797Z,62.71
2023-10-27T08:59:43.870Z,62.51
2023-10-27T09:00:42.913Z,63.34
2023-10-27T09:01:42.806Z,63.57
2023-10-27T09:02:42.693Z,63.78
2023-10-27T09:03:42.863Z,63.87
2023-10-27T09:04:42.835Z,64.07
2023-10-27T09:05:42.776Z,63.54
2023-10-27T09:06:42.612Z,63.21
2023-10-27T09:07:42.756Z,63.01
2023-10-27T09:08:42.677Z,62.81
2023-10-27T09:09:42.606Z,62.91
2023-10-27T09:10:42.532Z,63.14
2023-10-27T09:11:42.851Z,63.31
2023-10-27T09:12:42.754Z,62.88
2023-10-27T09:13:42.557Z,62.98
2023-10-27T09:14:42.854Z,63.31
2023-10-27T09:15:42.632Z,62.78
2023-10-27T09:16:42.706Z,62.35
2023-10-27T09:17:42.637Z,61.85
2023-10-27T09:18:42.745Z,62.05
2023-10-27T09:19:42.616Z,62.27
2023-10-27T09:20:42.522Z,62.07
2023-10-27T09:21:42.613Z,62.71
2023-10-27T09:22:46.143Z,62.58
2023-10-27T09:23:42.438Z,62.07
2023-10-27T09:24:42.457Z,61.94
2023-10-27T09:25:44.746Z,61.87
2023-10-27T09:26:42.506Z,62.91
2023-10-27T09:27:42.485Z,63.11
2023-10-27T09:28:42.454Z,62.71
2023-10-27T09:29:42.636Z,62.68
2023-10-27T09:30:42.396Z,62.81
2023-10-27T09:31:42.425Z,62.88
2023-10-27T09:32:42.508Z,62.24
2023-10-27T09:33:42.439Z,62.18
2023-10-27T09:34:42.266Z,61.85
2023-10-27T09:35:42.201Z,61.65
2023-10-27T09:36:42.293Z,61.71
2023-10-27T09:37:42.243Z,60.94
2023-10-27T09:38:42.375Z,61.98
2023-10-27T09:39:42.289Z,61.71
2023-10-27T09:40:42.459Z,60.91
2023-10-27T09:41:42.237Z,61.90
2023-10-27T09:42:42.187Z,62.01
2023-10-27T09:43:42.126Z,62.94
2023-10-27T09:44:42.255Z,63.01
2023-10-27T09:45:42.072Z,62.05
2023-10-27T09:46:42.270Z,61.24
2023-10-27T09:47:42.351Z,61.67
2023-10-27T09:48:42.044Z,61.98
2023-10-27T09:49:42.205Z,62.51
2023-10-27T09:50:42.252Z,62.71
2023-10-27T09:51:42.141Z,61.85
2023-10-27T09:52:42.167Z,61.74
2023-10-27T09:53:42.212Z,62.41
2023-10-27T09:54:42.114Z,62.68
2023-10-27T09:55:42.013Z,62.18
2023-10-27T09:56:42.042Z,62.07
2023-10-27T09:57:41.981Z,62.30
2023-10-27T09:58:41.943Z,62.21
2023-10-27T09:59:42.124Z,62.61
2023-10-27T10:00:41.610Z,62.91
2023-10-27T10:01:41.487Z,63.75
2023-10-27T10:02:41.531Z,64.02
2023-10-27T10:03:41.489Z,63.48
2023-10-27T10:04:41.604Z,63.68
2023-10-27T10:05:41.551Z,64.02
2023-10-27T10:06:50.123Z,64.25
2023-10-27T10:07:42.503Z,64.78
2023-10-27T10:08:41.426Z,65.06
2023-10-27T10:09:41.329Z,64.95
2023-10-27T10:10:41.470Z,64.55
2023-10-27T10:11:41.473Z,64.12
2023-10-27T10:12:41.422Z,63.82
2023-10-27T10:13:41.385Z,63.95
2023-10-27T10:14:41.330Z,64.22
2023-10-27T10:15:41.335Z,63.82
2023-10-27T10:16:41.469Z,63.39
2023-10-27T10:17:41.548Z,62.75
2023-10-27T10:18:41.300Z,62.78
2023-10-27T10:19:41.409Z,62.88
2023-10-27T10:20:41.427Z,62.85
2023-10-27T10:21:41.246Z,62.15
2023-10-27T10:22:41.651Z,61.91
2023-10-27T10:23:41.263Z,61.51
2023-10-27T10:24:41.487Z,60.55
2023-10-27T10:25:41.465Z,59.95
2023-10-27T10:26:41.279Z,60.05
2023-10-27T10:27:41.157Z,60.55
2023-10-27T10:28:41.379Z,60.45
2023-10-27T10:29:41.218Z,60.68
2023-10-27T10:30:41.170Z,61.21
2023-10-27T10:31:41.200Z,61.01
2023-10-27T10:32:41.275Z,61.44
2023-10-27T10:33:41.182Z,61.94
2023-10-27T10:34:41.232Z,62.55
2023-10-27T10:35:41.129Z,62.78
2023-10-27T10:36:41.097Z,62.12
2023-10-27T10:37:41.067Z,61.91
2023-10-27T10:38:41.088Z,62.75
2023-10-27T10:39:40.959Z,62.95
2023-10-27T10:40:41.176Z,62.12
2023-10-27T10:41:41.103Z,62.12
2023-10-27T10:42:41.036Z,61.88
2023-10-27T10:43:41.010Z,61.55
2023-10-27T10:44:41.031Z,61.79
2023-10-27T10:45:40.969Z,61.29
2023-10-27T10:46:41.131Z,61.61
2023-10-27T10:47:41.060Z,62.15
2023-10-27T10:48:41.114Z,63.05
2023-10-27T10:49:40.989Z,63.51
2023-10-27T10:50:40.906Z,63.99
2023-10-27T10:51:40.993Z,63.79
2023-10-27T10:52:41.062Z,63.02
2023-10-27T10:53:40.924Z,62.42
2023-10-27T10:54:40.893Z,61.79
2023-10-27T10:55:40.829Z,61.99
2023-10-27T10:56:40.789Z,62.65
2023-10-27T10:57:40.881Z,63.08
2023-10-27T10:58:40.887Z,64.52
2023-10-27T10:59:40.803Z,64.29
2023-10-27T11:00:40.801Z,63.99
2023-10-27T11:01:40.930Z,63.45
2023-10-27T11:02:40.718Z,63.48
2023-10-27T11:03:40.700Z,64.19
2023-10-27T11:04:47.717Z,64.12
2023-10-27T11:05:41.779Z,64.09
2023-10-27T11:06:40.746Z,63.15
2023-10-27T11:07:40.725Z,63.25
2023-10-27T11:08:40.730Z,61.91
2023-10-27T11:09:40.638Z,62.65
2023-10-27T11:10:40.768Z,63.51
2023-10-27T11:11:48.037Z,64.12
2023-10-27T11:12:41.660Z,63.68
2023-10-27T11:13:40.618Z,63.28
2023-10-27T11:14:40.493Z,63.79
2023-10-27T11:15:40.537Z,63.18
2023-10-27T11:16:40.737Z,63.05
2023-10-27T11:17:40.488Z,62.85
2023-10-27T11:18:40.471Z,63.35
2023-10-27T11:19:42.270Z,62.95
2023-10-27T11:20:40.388Z,62.52
2023-10-27T11:21:40.363Z,62.65
2023-10-27T11:22:40.498Z,61.88
2023-10-27T11:23:40.339Z,61.38
2023-10-27T11:24:40.359Z,61.82
2023-10-27T11:25:40.365Z,63.15
2023-10-27T11:26:40.314Z,63.05
2023-10-27T11:27:40.425Z,62.62
2023-10-27T11:28:41.170Z,62.45
2023-10-27T11:29:40.354Z,62.55
2023-10-27T11:30:40.215Z,62.24
2023-10-27T11:31:40.323Z,62.05
2023-10-27T11:32:40.285Z,62.24
2023-10-27T11:33:40.237Z,62.68
2023-10-27T11:34:40.341Z,62.24
2023-10-27T11:35:40.173Z,62.38
2023-10-27T11:36:40.210Z,63.05
2023-10-27T11:37:40.252Z,62.12
2023-10-27T11:38:40.168Z,60.85
2023-10-27T11:39:40.105Z,60.75
2023-10-27T11:40:40.260Z,59.92
2023-10-27T11:41:40.126Z,59.72
2023-10-27T11:42:40.082Z,59.52
2023-10-27T11:43:40.748Z,58.69
2023-10-27T11:44:40.025Z,59.19
2023-10-27T11:45:40.042Z,58.69
2023-10-27T11:46:40.207Z,58.99
2023-10-27T11:47:40.221Z,58.33
2023-10-27T11:48:39.994Z,57.63
2023-10-27T11:49:40.108Z,57.96
2023-10-27T11:50:40.093Z,58.59
2023-10-27T11:51:40.101Z,57.98
2023-10-27T11:52:40.060Z,58.18
2023-10-27T11:53:39.948Z,57.96
2023-10-27T11:54:40.068Z,57.06
2023-10-27T11:55:40.705Z,58.31
2023-10-27T11:56:39.872Z,58.31
2023-10-27T11:57:39.913Z,58.62
2023-10-27T11:58:39.892Z,57.96
2023-10-27T11:59:39.833Z,57.15
2023-10-27T12:00:40.045Z,56.60
2023-10-27T12:01:39.865Z,57.26
2023-10-27T12:02:39.833Z,57.13
2023-10-27T12:03:39.867Z,56.70
2023-10-27T12:04:39.806Z,56.50
2023-10-27T12:05:39.795Z,56.50
2023-10-27T12:06:39.824Z,56.30
2023-10-27T12:07:39.778Z,56.50
2023-10-27T12:08:39.697Z,56.63
2023-10-27T12:09:39.720Z,57.13
2023-10-27T12:10:39.728Z,57.66
2023-10-27T12:11:39.691Z,57.79
2023-10-27T12:12:39.810Z,58.49
2023-10-27T12:13:39.659Z,59.06
2023-10-27T12:14:39.617Z,60.22
2023-10-27T12:15:39.628Z,61.86
2023-10-27T12:16:39.685Z,61.46
2023-10-27T12:17:39.655Z,61.02
2023-10-27T12:18:39.816Z,60.93
2023-10-27T12:19:39.603Z,62.06
2023-10-27T12:20:39.574Z,61.88
2023-10-27T12:21:39.548Z,62.36
2023-10-27T12:22:39.562Z,62.99
2023-10-27T12:23:39.491Z,62.13
2023-10-27T12:24:39.608Z,62.26
2023-10-27T12:25:39.573Z,62.06
2023-10-27T12:26:39.464Z,62.49
2023-10-27T12:27:39.461Z,61.96
2023-10-27T12:28:39.424Z,61.86
2023-10-27T12:29:39.464Z,61.58
2023-10-27T12:30:39.571Z,61.99
2023-10-27T12:31:39.445Z,61.79
2023-10-27T12:32:39.396Z,62.12
2023-10-27T12:33:39.426Z,61.71
2023-10-27T12:34:39.354Z,62.55
2023-10-27T12:35:39.369Z,63.18
2023-10-27T12:36:39.360Z,63.18
2023-10-27T12:37:39.403Z,63.99
2023-10-27T12:38:39.275Z,64.25
2023-10-27T12:39:39.283Z,65.36
2023-10-27T12:40:39.287Z,66.30
2023-10-27T12:41:39.270Z,66.39
2023-10-27T12:42:39.300Z,67.10
2023-10-27T12:43:39.259Z,66.90
2023-10-27T12:44:39.207Z,67.27
2023-10-27T12:45:39.225Z,66.94
2023-10-27T12:46:39.308Z,66.36
2023-10-27T12:47:39.290Z,66.70
2023-10-27T12:48:39.179Z,67.30
2023-10-27T12:49:39.290Z,67.17
2023-10-27T12:50:39.109Z,67.17
2023-10-27T12:51:39.162Z,66.77
2023-10-27T12:52:39.156Z,66.56